College Park, Georgia
Current Conditions -  °F | °C
As of 10:52 PM on Tuesday 21 Oct 2014 (Local Time) from KATL Reporting Station
Clear Clear  
Wind Chill: 60°   Ceiling: Unl
Heat Index: 60°   Visibility: 10mi
Dew Point: 47°   Wind: 8mph
Humidity: 62%   Direction: 330°NNW
Pressure: 30.02"   Gusts: NA
Location:  33.64°N, 84.47°W
Report Text: KATL 220252Z 33007KT 10SM CLR 16/08 A3002 RMK AO2 SLP161 T01560083 51012
Loading
Personal Weather Stations






























Interactive Weather Map
Tropical Storm Tracking
New forecast layout! Learn more

10-Day Weather Forecast

Advertisements
Track Severe Weather on mobile